sensor_id;sensor_type;location;lat;lon;timestamp;P1;durP1;ratioP1;P2;durP2;ratioP2
10945;SDS011;5525;42.648;23.368;2023-03-14T00:01:49;7.22;;;5.45;;
10945;SDS011;5525;42.648;23.368;2023-03-14T00:04:15;8.10;;;5.38;;
10945;SDS011;5525;42.648;23.368;2023-03-14T00:06:43;8.27;;;5.88;;
10945;SDS011;5525;42.648;23.368;2023-03-14T00:09:11;7.82;;;5.75;;
10945;SDS011;5525;42.648;23.368;2023-03-14T00:11:38;8.27;;;6.20;;
10945;SDS011;5525;42.648;23.368;2023-03-14T00:14:05;7.10;;;5.70;;
10945;SDS011;5525;42.648;23.368;2023-03-14T00:16:33;6.90;;;5.55;;
10945;SDS011;5525;42.648;23.368;2023-03-14T00:18:59;9.18;;;6.72;;
10945;SDS011;5525;42.648;23.368;2023-03-14T00:21:26;10.73;;;6.88;;
10945;SDS011;5525;42.648;23.368;2023-03-14T00:23:53;8.65;;;6.43;;
10945;SDS011;5525;42.648;23.368;2023-03-14T00:26:21;9.48;;;6.97;;
10945;SDS011;5525;42.648;23.368;2023-03-14T00:28:50;8.18;;;6.38;;
10945;SDS011;5525;42.648;23.368;2023-03-14T00:31:18;8.30;;;6.15;;
10945;SDS011;5525;42.648;23.368;2023-03-14T00:33:46;9.98;;;5.80;;
10945;SDS011;5525;42.648;23.368;2023-03-14T00:36:13;7.93;;;6.20;;
10945;SDS011;5525;42.648;23.368;2023-03-14T00:38:42;9.40;;;6.45;;
10945;SDS011;5525;42.648;23.368;2023-03-14T00:41:10;8.02;;;5.95;;
10945;SDS011;5525;42.648;23.368;2023-03-14T00:43:39;8.40;;;6.05;;
10945;SDS011;5525;42.648;23.368;2023-03-14T00:46:06;7.57;;;5.20;;
10945;SDS011;5525;42.648;23.368;2023-03-14T00:48:33;7.72;;;5.07;;
10945;SDS011;5525;42.648;23.368;2023-03-14T00:51:01;6.53;;;4.85;;
10945;SDS011;5525;42.648;23.368;2023-03-14T00:53:28;6.28;;;4.90;;
10945;SDS011;5525;42.648;23.368;2023-03-14T00:55:55;6.25;;;4.88;;
10945;SDS011;5525;42.648;23.368;2023-03-14T00:58:22;7.07;;;4.78;;
10945;SDS011;5525;42.648;23.368;2023-03-14T01:00:48;8.00;;;5.47;;
10945;SDS011;5525;42.648;23.368;2023-03-14T01:03:15;6.07;;;4.97;;
10945;SDS011;5525;42.648;23.368;2023-03-14T01:05:42;9.93;;;6.30;;
10945;SDS011;5525;42.648;23.368;2023-03-14T01:08:10;10.48;;;6.80;;
10945;SDS011;5525;42.648;23.368;2023-03-14T01:10:37;11.75;;;7.32;;
10945;SDS011;5525;42.648;23.368;2023-03-14T01:13:05;10.77;;;7.20;;
10945;SDS011;5525;42.648;23.368;2023-03-14T01:15:32;8.93;;;6.88;;
10945;SDS011;5525;42.648;23.368;2023-03-14T01:17:59;8.13;;;6.07;;
10945;SDS011;5525;42.648;23.368;2023-03-14T01:20:26;10.88;;;7.55;;
10945;SDS011;5525;42.648;23.368;2023-03-14T01:22:52;10.10;;;7.22;;
10945;SDS011;5525;42.648;23.368;2023-03-14T01:25:20;8.75;;;6.70;;
10945;SDS011;5525;42.648;23.368;2023-03-14T01:27:47;8.50;;;6.78;;
10945;SDS011;5525;42.648;23.368;2023-03-14T01:30:14;10.27;;;6.90;;
10945;SDS011;5525;42.648;23.368;2023-03-14T01:32:40;9.68;;;7.10;;
10945;SDS011;5525;42.648;23.368;2023-03-14T01:35:07;13.27;;;8.02;;
10945;SDS011;5525;42.648;23.368;2023-03-14T01:37:34;12.57;;;7.72;;
10945;SDS011;5525;42.648;23.368;2023-03-14T01:40:01;12.43;;;8.35;;
10945;SDS011;5525;42.648;23.368;2023-03-14T01:42:32;11.00;;;7.60;;
10945;SDS011;5525;42.648;23.368;2023-03-14T01:44:59;14.75;;;9.35;;
10945;SDS011;5525;42.648;23.368;2023-03-14T01:47:27;14.93;;;8.13;;
10945;SDS011;5525;42.648;23.368;2023-03-14T01:49:56;14.45;;;8.10;;
10945;SDS011;5525;42.648;23.368;2023-03-14T01:52:26;11.82;;;7.60;;
10945;SDS011;5525;42.648;23.368;2023-03-14T01:54:58;10.93;;;7.70;;
10945;SDS011;5525;42.648;23.368;2023-03-14T01:57:29;12.00;;;8.15;;
10945;SDS011;5525;42.648;23.368;2023-03-14T01:59:59;11.15;;;7.75;;
10945;SDS011;5525;42.648;23.368;2023-03-14T02:02:33;11.75;;;8.25;;
10945;SDS011;5525;42.648;23.368;2023-03-14T02:05:01;12.27;;;8.82;;
10945;SDS011;5525;42.648;23.368;2023-03-14T02:07:30;16.35;;;10.60;;
10945;SDS011;5525;42.648;23.368;2023-03-14T02:10:01;16.08;;;11.02;;
10945;SDS011;5525;42.648;23.368;2023-03-14T02:12:29;16.23;;;10.02;;
10945;SDS011;5525;42.648;23.368;2023-03-14T02:14:57;15.35;;;10.32;;
10945;SDS011;5525;42.648;23.368;2023-03-14T02:17:24;15.80;;;11.27;;
10945;SDS011;5525;42.648;23.368;2023-03-14T02:19:58;19.08;;;12.15;;
10945;SDS011;5525;42.648;23.368;2023-03-14T02:22:37;17.40;;;12.57;;
10945;SDS011;5525;42.648;23.368;2023-03-14T02:25:08;18.50;;;12.73;;
10945;SDS011;5525;42.648;23.368;2023-03-14T02:27:42;17.50;;;11.65;;
10945;SDS011;5525;42.648;23.368;2023-03-14T02:30:11;18.08;;;11.15;;
10945;SDS011;5525;42.648;23.368;2023-03-14T02:32:41;15.55;;;11.32;;
10945;SDS011;5525;42.648;23.368;2023-03-14T02:35:11;19.05;;;11.65;;
10945;SDS011;5525;42.648;23.368;2023-03-14T02:37:41;15.68;;;10.40;;
10945;SDS011;5525;42.648;23.368;2023-03-14T02:40:10;20.08;;;10.80;;
10945;SDS011;5525;42.648;23.368;2023-03-14T02:42:37;15.27;;;10.68;;
10945;SDS011;5525;42.648;23.368;2023-03-14T02:45:28;14.73;;;9.93;;
10945;SDS011;5525;42.648;23.368;2023-03-14T02:48:01;13.77;;;10.05;;
10945;SDS011;5525;42.648;23.368;2023-03-14T02:50:32;14.82;;;9.63;;
10945;SDS011;5525;42.648;23.368;2023-03-14T02:53:00;17.95;;;10.55;;
10945;SDS011;5525;42.648;23.368;2023-03-14T02:55:27;14.45;;;9.88;;
10945;SDS011;5525;42.648;23.368;2023-03-14T02:57:53;18.17;;;11.18;;
10945;SDS011;5525;42.648;23.368;2023-03-14T03:00:20;13.98;;;9.95;;
10945;SDS011;5525;42.648;23.368;2023-03-14T03:02:48;16.27;;;10.77;;
10945;SDS011;5525;42.648;23.368;2023-03-14T03:05:15;14.00;;;9.93;;
10945;SDS011;5525;42.648;23.368;2023-03-14T03:07:42;16.98;;;11.32;;
10945;SDS011;5525;42.648;23.368;2023-03-14T03:10:09;17.25;;;10.30;;
10945;SDS011;5525;42.648;23.368;2023-03-14T03:12:36;17.52;;;10.48;;
10945;SDS011;5525;42.648;23.368;2023-03-14T03:15:03;15.25;;;10.70;;
10945;SDS011;5525;42.648;23.368;2023-03-14T03:17:30;18.42;;;10.43;;
10945;SDS011;5525;42.648;23.368;2023-03-14T03:19:58;14.25;;;9.55;;
10945;SDS011;5525;42.648;23.368;2023-03-14T03:22:25;19.95;;;11.38;;
10945;SDS011;5525;42.648;23.368;2023-03-14T03:24:51;18.17;;;10.82;;
10945;SDS011;5525;42.648;23.368;2023-03-14T03:27:18;20.67;;;11.48;;
10945;SDS011;5525;42.648;23.368;2023-03-14T03:29:45;17.90;;;11.18;;
10945;SDS011;5525;42.648;23.368;2023-03-14T03:32:12;15.73;;;10.00;;
10945;SDS011;5525;42.648;23.368;2023-03-14T03:34:39;15.38;;;10.18;;
10945;SDS011;5525;42.648;23.368;2023-03-14T03:37:07;15.77;;;10.05;;
10945;SDS011;5525;42.648;23.368;2023-03-14T03:39:33;13.38;;;9.77;;
10945;SDS011;5525;42.648;23.368;2023-03-14T03:42:00;14.98;;;10.20;;
10945;SDS011;5525;42.648;23.368;2023-03-14T03:44:27;15.85;;;10.63;;
10945;SDS011;5525;42.648;23.368;2023-03-14T03:46:53;14.57;;;9.63;;
10945;SDS011;5525;42.648;23.368;2023-03-14T03:49:20;14.40;;;9.65;;
10945;SDS011;5525;42.648;23.368;2023-03-14T03:51:47;13.35;;;9.18;;
10945;SDS011;5525;42.648;23.368;2023-03-14T03:54:15;16.30;;;10.40;;
10945;SDS011;5525;42.648;23.368;2023-03-14T03:56:42;18.02;;;10.30;;
10945;SDS011;5525;42.648;23.368;2023-03-14T03:59:08;14.18;;;9.43;;
10945;SDS011;5525;42.648;23.368;2023-03-14T04:01:35;16.23;;;9.57;;
10945;SDS011;5525;42.648;23.368;2023-03-14T04:04:01;14.57;;;9.48;;
10945;SDS011;5525;42.648;23.368;2023-03-14T04:06:28;13.38;;;9.27;;
10945;SDS011;5525;42.648;23.368;2023-03-14T04:08:55;14.05;;;9.93;;
10945;SDS011;5525;42.648;23.368;2023-03-14T04:11:23;16.30;;;9.68;;
10945;SDS011;5525;42.648;23.368;2023-03-14T04:13:50;15.60;;;10.00;;
10945;SDS011;5525;42.648;23.368;2023-03-14T04:16:17;17.02;;;10.77;;
10945;SDS011;5525;42.648;23.368;2023-03-14T04:18:46;14.73;;;10.02;;
10945;SDS011;5525;42.648;23.368;2023-03-14T04:21:12;14.50;;;9.85;;
10945;SDS011;5525;42.648;23.368;2023-03-14T04:23:39;16.65;;;10.15;;
10945;SDS011;5525;42.648;23.368;2023-03-14T04:26:06;17.08;;;9.68;;
10945;SDS011;5525;42.648;23.368;2023-03-14T04:28:34;16.65;;;10.38;;
10945;SDS011;5525;42.648;23.368;2023-03-14T04:31:06;16.20;;;10.35;;
10945;SDS011;5525;42.648;23.368;2023-03-14T04:33:33;15.60;;;9.82;;
10945;SDS011;5525;42.648;23.368;2023-03-14T04:36:01;17.92;;;11.20;;
10945;SDS011;5525;42.648;23.368;2023-03-14T04:38:28;17.58;;;10.68;;
10945;SDS011;5525;42.648;23.368;2023-03-14T04:40:54;16.83;;;10.52;;
10945;SDS011;5525;42.648;23.368;2023-03-14T04:43:21;14.40;;;10.43;;
10945;SDS011;5525;42.648;23.368;2023-03-14T04:45:49;19.20;;;10.75;;
10945;SDS011;5525;42.648;23.368;2023-03-14T04:48:16;16.17;;;9.95;;
10945;SDS011;5525;42.648;23.368;2023-03-14T04:50:42;19.42;;;11.18;;
10945;SDS011;5525;42.648;23.368;2023-03-14T04:53:09;17.88;;;10.75;;
10945;SDS011;5525;42.648;23.368;2023-03-14T04:55:35;21.95;;;11.23;;
10945;SDS011;5525;42.648;23.368;2023-03-14T04:58:02;17.95;;;11.07;;
10945;SDS011;5525;42.648;23.368;2023-03-14T05:00:29;15.95;;;10.55;;
10945;SDS011;5525;42.648;23.368;2023-03-14T05:02:57;16.33;;;10.30;;
10945;SDS011;5525;42.648;23.368;2023-03-14T05:05:25;17.95;;;10.57;;
10945;SDS011;5525;42.648;23.368;2023-03-14T05:07:52;17.55;;;10.55;;
10945;SDS011;5525;42.648;23.368;2023-03-14T05:10:18;17.67;;;10.25;;
10945;SDS011;5525;42.648;23.368;2023-03-14T05:12:45;17.65;;;10.68;;
10945;SDS011;5525;42.648;23.368;2023-03-14T05:15:12;16.50;;;10.52;;
10945;SDS011;5525;42.648;23.368;2023-03-14T05:17:38;28.27;;;11.90;;
10945;SDS011;5525;42.648;23.368;2023-03-14T05:20:07;20.73;;;11.52;;
10945;SDS011;5525;42.648;23.368;2023-03-14T05:22:37;18.15;;;10.52;;
10945;SDS011;5525;42.648;23.368;2023-03-14T05:25:05;19.08;;;10.77;;
10945;SDS011;5525;42.648;23.368;2023-03-14T05:27:32;18.13;;;10.52;;
10945;SDS011;5525;42.648;23.368;2023-03-14T05:29:59;18.17;;;11.15;;
10945;SDS011;5525;42.648;23.368;2023-03-14T05:32:25;19.20;;;9.88;;
10945;SDS011;5525;42.648;23.368;2023-03-14T05:34:52;16.58;;;9.88;;
10945;SDS011;5525;42.648;23.368;2023-03-14T05:37:24;17.05;;;10.77;;
10945;SDS011;5525;42.648;23.368;2023-03-14T05:39:51;23.85;;;10.93;;
10945;SDS011;5525;42.648;23.368;2023-03-14T05:42:18;19.08;;;9.90;;
10945;SDS011;5525;42.648;23.368;2023-03-14T05:44:44;13.77;;;9.55;;
10945;SDS011;5525;42.648;23.368;2023-03-14T05:47:11;38.67;;;11.20;;
10945;SDS011;5525;42.648;23.368;2023-03-14T05:49:38;22.95;;;11.30;;
10945;SDS011;5525;42.648;23.368;2023-03-14T05:52:04;16.13;;;8.93;;
10945;SDS011;5525;42.648;23.368;2023-03-14T05:54:32;12.63;;;7.32;;
10945;SDS011;5525;42.648;23.368;2023-03-14T05:56:59;11.88;;;7.97;;
10945;SDS011;5525;42.648;23.368;2023-03-14T05:59:26;9.60;;;5.90;;
10945;SDS011;5525;42.648;23.368;2023-03-14T06:01:53;15.43;;;10.18;;
10945;SDS011;5525;42.648;23.368;2023-03-14T06:04:19;17.27;;;9.18;;
10945;SDS011;5525;42.648;23.368;2023-03-14T06:06:46;9.02;;;5.82;;
10945;SDS011;5525;42.648;23.368;2023-03-14T06:09:12;17.70;;;11.45;;
10945;SDS011;5525;42.648;23.368;2023-03-14T06:11:40;17.48;;;7.10;;
10945;SDS011;5525;42.648;23.368;2023-03-14T06:14:07;17.38;;;9.50;;
10945;SDS011;5525;42.648;23.368;2023-03-14T06:16:34;9.20;;;6.47;;
10945;SDS011;5525;42.648;23.368;2023-03-14T06:19:00;26.67;;;7.82;;
10945;SDS011;5525;42.648;23.368;2023-03-14T06:21:27;11.93;;;7.18;;
10945;SDS011;5525;42.648;23.368;2023-03-14T06:23:54;19.50;;;9.50;;
10945;SDS011;5525;42.648;23.368;2023-03-14T06:26:20;11.40;;;7.38;;
10945;SDS011;5525;42.648;23.368;2023-03-14T06:28:49;11.73;;;7.20;;
10945;SDS011;5525;42.648;23.368;2023-03-14T06:31:18;12.27;;;7.18;;
10945;SDS011;5525;42.648;23.368;2023-03-14T06:33:45;10.88;;;7.25;;
10945;SDS011;5525;42.648;23.368;2023-03-14T06:36:11;12.02;;;7.28;;
10945;SDS011;5525;42.648;23.368;2023-03-14T06:38:38;10.88;;;7.05;;
10945;SDS011;5525;42.648;23.368;2023-03-14T06:41:05;10.52;;;7.45;;
10945;SDS011;5525;42.648;23.368;2023-03-14T06:43:33;9.82;;;7.13;;
10945;SDS011;5525;42.648;23.368;2023-03-14T06:46:01;11.38;;;7.10;;
10945;SDS011;5525;42.648;23.368;2023-03-14T06:48:27;8.45;;;6.50;;
10945;SDS011;5525;42.648;23.368;2023-03-14T06:50:54;11.05;;;6.13;;
10945;SDS011;5525;42.648;23.368;2023-03-14T06:53:21;12.27;;;6.30;;
10945;SDS011;5525;42.648;23.368;2023-03-14T06:55:47;11.88;;;7.07;;
10945;SDS011;5525;42.648;23.368;2023-03-14T06:58:14;13.00;;;6.95;;
10945;SDS011;5525;42.648;23.368;2023-03-14T07:00:41;13.95;;;6.60;;
10945;SDS011;5525;42.648;23.368;2023-03-14T07:03:09;11.57;;;7.13;;
10945;SDS011;5525;42.648;23.368;2023-03-14T07:05:36;8.65;;;6.70;;
10945;SDS011;5525;42.648;23.368;2023-03-14T07:08:05;9.27;;;6.40;;
10945;SDS011;5525;42.648;23.368;2023-03-14T07:10:32;14.23;;;7.15;;
10945;SDS011;5525;42.648;23.368;2023-03-14T07:12:59;11.35;;;6.75;;
10945;SDS011;5525;42.648;23.368;2023-03-14T07:15:25;9.27;;;6.97;;
10945;SDS011;5525;42.648;23.368;2023-03-14T07:17:55;10.95;;;6.43;;
10945;SDS011;5525;42.648;23.368;2023-03-14T07:20:24;10.68;;;7.20;;
10945;SDS011;5525;42.648;23.368;2023-03-14T07:22:51;11.02;;;7.15;;
10945;SDS011;5525;42.648;23.368;2023-03-14T07:25:18;8.20;;;7.28;;
10945;SDS011;5525;42.648;23.368;2023-03-14T07:27:44;12.07;;;7.57;;
10945;SDS011;5525;42.648;23.368;2023-03-14T07:30:13;11.27;;;7.72;;
10945;SDS011;5525;42.648;23.368;2023-03-14T07:32:41;10.15;;;7.15;;
10945;SDS011;5525;42.648;23.368;2023-03-14T07:35:09;11.77;;;7.20;;
10945;SDS011;5525;42.648;23.368;2023-03-14T07:37:37;10.95;;;7.95;;
10945;SDS011;5525;42.648;23.368;2023-03-14T07:40:05;12.75;;;8.13;;
10945;SDS011;5525;42.648;23.368;2023-03-14T07:42:33;12.35;;;8.88;;
10945;SDS011;5525;42.648;23.368;2023-03-14T07:45:00;12.85;;;8.35;;
10945;SDS011;5525;42.648;23.368;2023-03-14T07:47:28;9.63;;;8.52;;
10945;SDS011;5525;42.648;23.368;2023-03-14T07:49:55;25.27;;;9.30;;
10945;SDS011;5525;42.648;23.368;2023-03-14T07:52:23;19.40;;;9.48;;
10945;SDS011;5525;42.648;23.368;2023-03-14T07:54:51;23.33;;;10.13;;
10945;SDS011;5525;42.648;23.368;2023-03-14T07:57:18;13.95;;;10.07;;
10945;SDS011;5525;42.648;23.368;2023-03-14T07:59:45;13.77;;;9.52;;
10945;SDS011;5525;42.648;23.368;2023-03-14T08:02:12;13.50;;;9.13;;
10945;SDS011;5525;42.648;23.368;2023-03-14T08:04:39;14.27;;;9.25;;
10945;SDS011;5525;42.648;23.368;2023-03-14T08:07:07;12.95;;;9.32;;
10945;SDS011;5525;42.648;23.368;2023-03-14T08:09:34;17.70;;;9.35;;
10945;SDS011;5525;42.648;23.368;2023-03-14T08:12:02;15.38;;;10.35;;
10945;SDS011;5525;42.648;23.368;2023-03-14T08:14:30;19.65;;;11.23;;
10945;SDS011;5525;42.648;23.368;2023-03-14T08:16:57;20.42;;;10.85;;
10945;SDS011;5525;42.648;23.368;2023-03-14T08:19:23;14.15;;;10.40;;
10945;SDS011;5525;42.648;23.368;2023-03-14T08:21:51;12.70;;;10.55;;
10945;SDS011;5525;42.648;23.368;2023-03-14T08:24:18;18.80;;;11.65;;
10945;SDS011;5525;42.648;23.368;2023-03-14T08:26:45;18.80;;;11.52;;
10945;SDS011;5525;42.648;23.368;2023-03-14T08:29:13;15.30;;;11.23;;
10945;SDS011;5525;42.648;23.368;2023-03-14T08:31:41;14.98;;;11.52;;
10945;SDS011;5525;42.648;23.368;2023-03-14T08:34:07;15.68;;;11.38;;
10945;SDS011;5525;42.648;23.368;2023-03-14T08:36:35;12.52;;;10.35;;
10945;SDS011;5525;42.648;23.368;2023-03-14T08:39:02;15.00;;;10.90;;
10945;SDS011;5525;42.648;23.368;2023-03-14T08:41:32;15.40;;;10.65;;
10945;SDS011;5525;42.648;23.368;2023-03-14T08:44:05;12.98;;;10.90;;
10945;SDS011;5525;42.648;23.368;2023-03-14T08:46:33;16.77;;;11.70;;
10945;SDS011;5525;42.648;23.368;2023-03-14T08:49:00;12.82;;;10.77;;
10945;SDS011;5525;42.648;23.368;2023-03-14T08:51:28;15.50;;;10.98;;
10945;SDS011;5525;42.648;23.368;2023-03-14T08:53:55;13.60;;;10.27;;
10945;SDS011;5525;42.648;23.368;2023-03-14T08:56:22;15.93;;;10.35;;
10945;SDS011;5525;42.648;23.368;2023-03-14T08:58:49;12.05;;;9.93;;
10945;SDS011;5525;42.648;23.368;2023-03-14T09:01:16;15.05;;;10.18;;
10945;SDS011;5525;42.648;23.368;2023-03-14T09:03:45;11.90;;;9.90;;
10945;SDS011;5525;42.648;23.368;2023-03-14T09:06:14;13.02;;;10.27;;
10945;SDS011;5525;42.648;23.368;2023-03-14T09:08:42;11.63;;;10.00;;
10945;SDS011;5525;42.648;23.368;2023-03-14T09:11:10;14.18;;;10.07;;
10945;SDS011;5525;42.648;23.368;2023-03-14T09:13:38;11.48;;;10.27;;
10945;SDS011;5525;42.648;23.368;2023-03-14T09:16:06;12.07;;;9.10;;
10945;SDS011;5525;42.648;23.368;2023-03-14T09:18:34;11.60;;;9.52;;
10945;SDS011;5525;42.648;23.368;2023-03-14T09:21:03;9.95;;;8.90;;
10945;SDS011;5525;42.648;23.368;2023-03-14T09:23:30;13.15;;;8.90;;
10945;SDS011;5525;42.648;23.368;2023-03-14T09:25:58;11.48;;;9.20;;
10945;SDS011;5525;42.648;23.368;2023-03-14T09:28:25;11.30;;;8.88;;
10945;SDS011;5525;42.648;23.368;2023-03-14T09:30:53;10.38;;;8.98;;
10945;SDS011;5525;42.648;23.368;2023-03-14T09:33:20;10.85;;;9.75;;
10945;SDS011;5525;42.648;23.368;2023-03-14T09:35:47;12.32;;;9.05;;
10945;SDS011;5525;42.648;23.368;2023-03-14T09:38:15;10.35;;;8.30;;
10945;SDS011;5525;42.648;23.368;2023-03-14T09:40:43;10.35;;;8.40;;
10945;SDS011;5525;42.648;23.368;2023-03-14T09:43:10;10.95;;;8.73;;
10945;SDS011;5525;42.648;23.368;2023-03-14T09:45:40;11.32;;;9.10;;
10945;SDS011;5525;42.648;23.368;2023-03-14T09:48:12;9.60;;;8.23;;
10945;SDS011;5525;42.648;23.368;2023-03-14T09:50:43;10.52;;;7.53;;
10945;SDS011;5525;42.648;23.368;2023-03-14T09:53:16;12.05;;;7.40;;
10945;SDS011;5525;42.648;23.368;2023-03-14T09:55:45;9.68;;;7.97;;
10945;SDS011;5525;42.648;23.368;2023-03-14T09:58:16;8.43;;;7.22;;
10945;SDS011;5525;42.648;23.368;2023-03-14T10:00:45;11.55;;;7.80;;
10945;SDS011;5525;42.648;23.368;2023-03-14T10:03:19;9.55;;;8.10;;
10945;SDS011;5525;42.648;23.368;2023-03-14T10:05:49;9.85;;;7.03;;
10945;SDS011;5525;42.648;23.368;2023-03-14T10:08:19;9.13;;;7.05;;
10945;SDS011;5525;42.648;23.368;2023-03-14T10:10:46;8.20;;;6.60;;
10945;SDS011;5525;42.648;23.368;2023-03-14T10:13:14;14.55;;;7.30;;
10945;SDS011;5525;42.648;23.368;2023-03-14T10:15:46;10.25;;;6.85;;
10945;SDS011;5525;42.648;23.368;2023-03-14T10:18:15;8.40;;;6.57;;
10945;SDS011;5525;42.648;23.368;2023-03-14T10:20:42;6.30;;;5.72;;
10945;SDS011;5525;42.648;23.368;2023-03-14T10:23:27;7.45;;;6.47;;
10945;SDS011;5525;42.648;23.368;2023-03-14T10:25:59;9.00;;;6.63;;
10945;SDS011;5525;42.648;23.368;2023-03-14T10:28:32;10.95;;;6.18;;
10945;SDS011;5525;42.648;23.368;2023-03-14T10:31:00;6.95;;;6.20;;
10945;SDS011;5525;42.648;23.368;2023-03-14T10:33:28;9.30;;;6.10;;
10945;SDS011;5525;42.648;23.368;2023-03-14T10:35:58;5.65;;;4.72;;
10945;SDS011;5525;42.648;23.368;2023-03-14T10:38:28;5.30;;;4.80;;
10945;SDS011;5525;42.648;23.368;2023-03-14T10:40:56;7.72;;;4.53;;
10945;SDS011;5525;42.648;23.368;2023-03-14T10:43:25;8.20;;;5.22;;
10945;SDS011;5525;42.648;23.368;2023-03-14T10:45:54;5.47;;;4.97;;
10945;SDS011;5525;42.648;23.368;2023-03-14T10:48:24;7.78;;;4.82;;
10945;SDS011;5525;42.648;23.368;2023-03-14T10:50:58;5.88;;;4.53;;
10945;SDS011;5525;42.648;23.368;2023-03-14T10:53:36;5.40;;;4.57;;
10945;SDS011;5525;42.648;23.368;2023-03-14T10:56:07;6.60;;;4.70;;
10945;SDS011;5525;42.648;23.368;2023-03-14T10:58:38;6.15;;;4.82;;
10945;SDS011;5525;42.648;23.368;2023-03-14T11:03:57;8.98;;;4.40;;
10945;SDS011;5525;42.648;23.368;2023-03-14T11:06:32;6.00;;;4.68;;
10945;SDS011;5525;42.648;23.368;2023-03-14T11:09:12;4.15;;;3.75;;
10945;SDS011;5525;42.648;23.368;2023-03-14T11:11:46;4.10;;;3.70;;
10945;SDS011;5525;42.648;23.368;2023-03-14T11:14:16;4.40;;;3.72;;
10945;SDS011;5525;42.648;23.368;2023-03-14T11:16:53;4.90;;;3.75;;
10945;SDS011;5525;42.648;23.368;2023-03-14T11:19:39;4.93;;;3.78;;
10945;SDS011;5525;42.648;23.368;2023-03-14T11:22:14;5.03;;;3.92;;
10945;SDS011;5525;42.648;23.368;2023-03-14T11:24:52;7.03;;;3.95;;
10945;SDS011;5525;42.648;23.368;2023-03-14T11:27:30;6.20;;;3.50;;
10945;SDS011;5525;42.648;23.368;2023-03-14T11:30:13;5.35;;;3.97;;
10945;SDS011;5525;42.648;23.368;2023-03-14T11:32:44;4.05;;;3.60;;
10945;SDS011;5525;42.648;23.368;2023-03-14T11:35:16;6.93;;;3.50;;
10945;SDS011;5525;42.648;23.368;2023-03-14T11:37:51;5.70;;;3.45;;
10945;SDS011;5525;42.648;23.368;2023-03-14T11:40:23;4.28;;;3.55;;
10945;SDS011;5525;42.648;23.368;2023-03-14T11:42:55;4.28;;;3.70;;
10945;SDS011;5525;42.648;23.368;2023-03-14T11:45:29;4.30;;;3.17;;
10945;SDS011;5525;42.648;23.368;2023-03-14T11:48:07;10.75;;;9.57;;
10945;SDS011;5525;42.648;23.368;2023-03-14T11:50:42;4.38;;;2.85;;
10945;SDS011;5525;42.648;23.368;2023-03-14T11:53:15;4.90;;;2.88;;
10945;SDS011;5525;42.648;23.368;2023-03-14T11:55:59;3.88;;;2.88;;
10945;SDS011;5525;42.648;23.368;2023-03-14T11:58:29;5.85;;;3.65;;
10945;SDS011;5525;42.648;23.368;2023-03-14T12:01:01;3.50;;;3.08;;
10945;SDS011;5525;42.648;23.368;2023-03-14T12:03:35;3.50;;;2.90;;
10945;SDS011;5525;42.648;23.368;2023-03-14T12:06:09;3.28;;;2.85;;
10945;SDS011;5525;42.648;23.368;2023-03-14T12:08:43;3.42;;;2.85;;
10945;SDS011;5525;42.648;23.368;2023-03-14T12:11:20;5.70;;;3.22;;
10945;SDS011;5525;42.648;23.368;2023-03-14T12:13:51;7.65;;;3.83;;
10945;SDS011;5525;42.648;23.368;2023-03-14T12:16:30;3.92;;;3.10;;
10945;SDS011;5525;42.648;23.368;2023-03-14T12:22:00;4.30;;;2.53;;
10945;SDS011;5525;42.648;23.368;2023-03-14T12:24:35;6.07;;;3.03;;
10945;SDS011;5525;42.648;23.368;2023-03-14T12:27:06;4.05;;;3.58;;
10945;SDS011;5525;42.648;23.368;2023-03-14T12:32:25;4.97;;;2.63;;
10945;SDS011;5525;42.648;23.368;2023-03-14T12:34:52;2.88;;;2.08;;
10945;SDS011;5525;42.648;23.368;2023-03-14T12:37:26;3.75;;;2.40;;
10945;SDS011;5525;42.648;23.368;2023-03-14T12:40:15;2.40;;;1.98;;
10945;SDS011;5525;42.648;23.368;2023-03-14T12:42:56;3.75;;;2.53;;
10945;SDS011;5525;42.648;23.368;2023-03-14T12:45:28;3.80;;;2.15;;
10945;SDS011;5525;42.648;23.368;2023-03-14T12:48:01;2.65;;;2.20;;
10945;SDS011;5525;42.648;23.368;2023-03-14T12:50:35;2.75;;;2.05;;
10945;SDS011;5525;42.648;23.368;2023-03-14T12:53:33;5.55;;;2.40;;
10945;SDS011;5525;42.648;23.368;2023-03-14T12:56:24;11.27;;;3.08;;
10945;SDS011;5525;42.648;23.368;2023-03-14T12:59:02;4.60;;;2.50;;
10945;SDS011;5525;42.648;23.368;2023-03-14T13:01:44;4.32;;;3.25;;
10945;SDS011;5525;42.648;23.368;2023-03-14T13:04:14;2.30;;;2.10;;
10945;SDS011;5525;42.648;23.368;2023-03-14T13:06:46;2.30;;;2.10;;
10945;SDS011;5525;42.648;23.368;2023-03-14T13:09:34;3.47;;;2.20;;
10945;SDS011;5525;42.648;23.368;2023-03-14T13:12:17;3.20;;;2.05;;
10945;SDS011;5525;42.648;23.368;2023-03-14T13:14:48;1.95;;;1.75;;
10945;SDS011;5525;42.648;23.368;2023-03-14T13:17:20;3.83;;;2.60;;
10945;SDS011;5525;42.648;23.368;2023-03-14T13:19:51;2.67;;;2.05;;
10945;SDS011;5525;42.648;23.368;2023-03-14T13:22:24;4.68;;;2.30;;
10945;SDS011;5525;42.648;23.368;2023-03-14T13:25:00;4.45;;;2.03;;
10945;SDS011;5525;42.648;23.368;2023-03-14T13:27:29;4.05;;;2.10;;
10945;SDS011;5525;42.648;23.368;2023-03-14T13:30:11;3.08;;;2.00;;
10945;SDS011;5525;42.648;23.368;2023-03-14T13:32:43;3.13;;;2.10;;
10945;SDS011;5525;42.648;23.368;2023-03-14T13:35:16;2.08;;;1.80;;
10945;SDS011;5525;42.648;23.368;2023-03-14T13:37:45;3.22;;;1.83;;
10945;SDS011;5525;42.648;23.368;2023-03-14T13:40:19;15.10;;;2.53;;
10945;SDS011;5525;42.648;23.368;2023-03-14T13:42:58;2.65;;;2.00;;
10945;SDS011;5525;42.648;23.368;2023-03-14T13:45:29;3.05;;;2.13;;
10945;SDS011;5525;42.648;23.368;2023-03-14T13:47:56;2.85;;;2.00;;
10945;SDS011;5525;42.648;23.368;2023-03-14T13:50:24;3.35;;;2.05;;
10945;SDS011;5525;42.648;23.368;2023-03-14T13:52:55;5.78;;;2.30;;
10945;SDS011;5525;42.648;23.368;2023-03-14T13:55:23;2.78;;;2.20;;
10945;SDS011;5525;42.648;23.368;2023-03-14T13:57:51;4.60;;;1.92;;
10945;SDS011;5525;42.648;23.368;2023-03-14T14:00:20;2.53;;;2.10;;
10945;SDS011;5525;42.648;23.368;2023-03-14T14:02:53;2.58;;;2.10;;
10945;SDS011;5525;42.648;23.368;2023-03-14T14:05:21;2.88;;;2.00;;
10945;SDS011;5525;42.648;23.368;2023-03-14T14:07:50;2.03;;;1.83;;
10945;SDS011;5525;42.648;23.368;2023-03-14T14:10:17;12.95;;;2.80;;
10945;SDS011;5525;42.648;23.368;2023-03-14T14:12:46;5.50;;;2.22;;
10945;SDS011;5525;42.648;23.368;2023-03-14T14:15:18;4.78;;;2.10;;
10945;SDS011;5525;42.648;23.368;2023-03-14T14:17:49;2.70;;;2.00;;
10945;SDS011;5525;42.648;23.368;2023-03-14T14:20:22;3.05;;;2.38;;
10945;SDS011;5525;42.648;23.368;2023-03-14T14:22:56;5.63;;;2.20;;
10945;SDS011;5525;42.648;23.368;2023-03-14T14:25:24;2.95;;;2.08;;
10945;SDS011;5525;42.648;23.368;2023-03-14T14:27:51;3.58;;;2.30;;
10945;SDS011;5525;42.648;23.368;2023-03-14T14:30:28;5.25;;;2.20;;
10945;SDS011;5525;42.648;23.368;2023-03-14T14:33:11;4.20;;;2.22;;
10945;SDS011;5525;42.648;23.368;2023-03-14T14:35:53;2.40;;;2.10;;
10945;SDS011;5525;42.648;23.368;2023-03-14T14:38:22;3.17;;;2.10;;
10945;SDS011;5525;42.648;23.368;2023-03-14T14:40:51;2.85;;;1.90;;
10945;SDS011;5525;42.648;23.368;2023-03-14T14:43:22;2.92;;;2.00;;
10945;SDS011;5525;42.648;23.368;2023-03-14T14:45:53;2.95;;;1.80;;
10945;SDS011;5525;42.648;23.368;2023-03-14T14:48:22;3.17;;;2.00;;
10945;SDS011;5525;42.648;23.368;2023-03-14T14:50:57;2.55;;;1.80;;
10945;SDS011;5525;42.648;23.368;2023-03-14T14:53:28;7.15;;;2.10;;
10945;SDS011;5525;42.648;23.368;2023-03-14T14:55:57;2.30;;;1.80;;
10945;SDS011;5525;42.648;23.368;2023-03-14T14:58:26;3.50;;;2.00;;